Tanja Jacob — A8YR7 — position and weather

sailwx.info

Track history (hours):
 
Tides and Currents Weather Stations Pressure Air Temp Water Temp Dewpoint Dewpoint Depression Visibility Wind Speed Wind Dir Waves Ship Positions

Tanja Jacob

Last reported at 2017-Jan-25 00:31 UTC. Time now 2017-Jan-25 01:24 UTC.
Position N 33°54' E 035°19'.

Length 227 m; draft 12.5 m.

Type: Ship. MMSI: 636092217.

Date/timePositionNaut miles runAvg speedWind from/ knotsBaromVisibWave heightAir tempDewpointWater temp
2017-Jan-25 00:31N 33°54' E 035°19'2511.5
2017-Jan-24 22:20N 33°53' E 034°49'  
2017-Jan-22 06:10N 34°25' E 033°30'1 0.6
2017-Jan-22 05:17N 34°25' E 033°30'1 0.6
2017-Jan-22 03:05N 34°27' E 033°30'  
2017-Jan-18 18:18N 34°28' E 033°27'912.1
2017-Jan-18 17:33N 34°33' E 033°18'1111.4
2017-Jan-18 16:33N 34°39' E 033°06'2 1.8
2017-Jan-18 15:31N 34°40' E 033°04'0 0.1
2017-Jan-18 14:31N 34°40' E 033°04'0 0.0
2017-Jan-18 13:33N 34°40' E 033°04'0 0.0
2017-Jan-18 12:33N 34°40' E 033°04'0 0.0
2017-Jan-18 11:32N 34°40' E 033°04'0 0.0
2017-Jan-18 10:32N 34°40' E 033°04'0 0.0
2017-Jan-18 09:32N 34°40' E 033°04'0 0.0
2017-Jan-18 08:31N 34°40' E 033°04'0 0.0
2017-Jan-18 07:31N 34°40' E 033°04'0 0.0
2017-Jan-18 06:33N 34°40' E 033°04'0 0.0
2017-Jan-18 05:33N 34°40' E 033°04'0 0.0
2017-Jan-18 04:32N 34°40' E 033°04'0 0.0
2017-Jan-18 03:32N 34°40' E 033°04'0 0.0
2017-Jan-18 02:32N 34°40' E 033°04'0 0.1
2017-Jan-18 01:31N 34°40' E 033°04'0 0.0
2017-Jan-18 00:31N 34°40' E 033°04'0 0.0
2017-Jan-17 23:33N 34°40' E 033°04'0 0.0
2017-Jan-17 22:33N 34°40' E 033°04'0 0.0
2017-Jan-17 21:32N 34°40' E 033°04'0 0.0
2017-Jan-17 20:32N 34°40' E 033°04'0 0.0
2017-Jan-17 19:32N 34°40' E 033°04'0 0.0
2017-Jan-17 18:31N 34°40' E 033°04'0 0.0
2017-Jan-17 17:31N 34°40' E 033°04'0 0.0
2017-Jan-17 16:33N 34°40' E 033°04'0 0.0
2017-Jan-17 15:33N 34°40' E 033°04'0 0.0
2017-Jan-17 14:32N 34°40' E 033°04'0 0.0
2017-Jan-17 13:29N 34°40' E 033°04'0 0.0
2017-Jan-17 12:29N 34°40' E 033°04'0 0.0
2017-Jan-17 11:31N 34°40' E 033°04'0 0.0
2017-Jan-17 10:31N 34°40' E 033°04'0 0.0
2017-Jan-17 09:33N 34°40' E 033°04'0 0.0
2017-Jan-17 08:33N 34°40' E 033°04'0 0.0
2017-Jan-17 07:32N 34°40' E 033°04'0 0.0
2017-Jan-17 06:29N 34°40' E 033°04'0 0.0
2017-Jan-17 05:31N 34°40' E 033°04'0 0.0
2017-Jan-17 04:31N 34°40' E 033°04'0 0.0
2017-Jan-17 03:31N 34°40' E 033°04'0 0.0
2017-Jan-17 02:33N 34°40' E 033°04'0 0.0
2017-Jan-17 01:33N 34°40' E 033°04'0 0.0
2017-Jan-17 00:32N 34°40' E 033°04'0 0.0
2017-Jan-16 23:32N 34°40' E 033°04'0 0.0
2017-Jan-16 22:31N 34°40' E 033°04'0 0.0
2017-Jan-16 21:31N 34°40' E 033°04'0 0.0
2017-Jan-16 20:31N 34°40' E 033°04'0 0.0
2017-Jan-16 19:33N 34°40' E 033°04'0 0.0
2017-Jan-16 18:33N 34°40' E 033°04'0 0.0
2017-Jan-16 17:32N 34°40' E 033°04'0 0.1
2017-Jan-16 16:33N 34°40' E 033°04'6 6.1
2017-Jan-16 15:33N 34°37' E 033°11'9 6.6
2017-Jan-16 14:08N 34°29' E 033°18'0 0.8
2017-Jan-16 13:33N 34°29' E 033°17'0 0.4
2017-Jan-16 12:33N 34°29' E 033°17'0 0.5
2017-Jan-16 11:33N 34°29' E 033°17'3 3.4
2017-Jan-16 10:33N 34°27' E 033°21'3 0.2
2017-Jan-15 22:27N 34°26' E 033°24'1 0.7
2017-Jan-15 21:33N 34°27' E 033°24'1 0.6
2017-Jan-15 20:32N 34°27' E 033°23'0 0.3
2017-Jan-15 19:33N 34°27' E 033°23'0 0.2
2017-Jan-15 18:33N 34°27' E 033°22'1 0.7
2017-Jan-15 17:33N 34°28' E 033°22'2 2.1
2017-Jan-15 16:32N 34°26' E 033°20'3 3.1
2017-Jan-15 15:26N 34°23' E 033°20'1 1.7
2017-Jan-15 14:33N 34°22' E 033°21'1 0.9
2017-Jan-15 13:28N 34°23' E 033°20'1 1.0
2017-Jan-15 12:30N 34°24' E 033°20'1 0.9
2017-Jan-15 11:33N 34°25' E 033°19'1 0.7
2017-Jan-15 10:33N 34°25' E 033°19'1 0.7
2017-Jan-15 09:33N 34°26' E 033°19'1 0.7
2017-Jan-15 08:33N 34°27' E 033°20'1 0.7
2017-Jan-15 07:33N 34°27' E 033°20'1 0.7
2017-Jan-15 06:33N 34°28' E 033°20'1 0.7
2017-Jan-15 05:33N 34°29' E 033°20'1 0.5
2017-Jan-15 04:33N 34°29' E 033°20'0 0.3
2017-Jan-15 03:33N 34°29' E 033°21'0 0.2
2017-Jan-15 02:31N 34°29' E 033°21'2 2.5
2017-Jan-15 01:33N 34°27' E 033°19'1 1.2
2017-Jan-15 00:33N 34°28' E 033°18'  
Track history (hours):
 
Tides and Currents Weather Stations Pressure Air Temp Water Temp Dewpoint Dewpoint Depression Visibility Wind Speed Wind Dir Waves Ship Positions

Tanja Jacob

Last reported at 2017-Jan-25 00:31 UTC. Time now 2017-Jan-25 01:24 UTC.
Position N 33°54' E 035°19'.

Length 227 m; draft 12.5 m.

Type: Ship. MMSI: 636092217.

Date/timePositionNaut miles runAvg speedWind from/ knotsBaromVisibWave heightAir tempDewpointWater temp
2017-Jan-25 00:31N 33°54' E 035°19'2511.5
2017-Jan-24 22:20N 33°53' E 034°49'  
2017-Jan-22 06:10N 34°25' E 033°30'1 0.6
2017-Jan-22 05:17N 34°25' E 033°30'1 0.6
2017-Jan-22 03:05N 34°27' E 033°30'  
2017-Jan-18 18:18N 34°28' E 033°27'912.1
2017-Jan-18 17:33N 34°33' E 033°18'1111.4
2017-Jan-18 16:33N 34°39' E 033°06'2 1.8
2017-Jan-18 15:31N 34°40' E 033°04'0 0.1
2017-Jan-18 14:31N 34°40' E 033°04'0 0.0
2017-Jan-18 13:33N 34°40' E 033°04'0 0.0
2017-Jan-18 12:33N 34°40' E 033°04'0 0.0
2017-Jan-18 11:32N 34°40' E 033°04'0 0.0
2017-Jan-18 10:32N 34°40' E 033°04'0 0.0
2017-Jan-18 09:32N 34°40' E 033°04'0 0.0
2017-Jan-18 08:31N 34°40' E 033°04'0 0.0
2017-Jan-18 07:31N 34°40' E 033°04'0 0.0
2017-Jan-18 06:33N 34°40' E 033°04'0 0.0
2017-Jan-18 05:33N 34°40' E 033°04'0 0.0
2017-Jan-18 04:32N 34°40' E 033°04'0 0.0
2017-Jan-18 03:32N 34°40' E 033°04'0 0.0
2017-Jan-18 02:32N 34°40' E 033°04'0 0.1
2017-Jan-18 01:31N 34°40' E 033°04'0 0.0
2017-Jan-18 00:31N 34°40' E 033°04'0 0.0
2017-Jan-17 23:33N 34°40' E 033°04'0 0.0
2017-Jan-17 22:33N 34°40' E 033°04'0 0.0
2017-Jan-17 21:32N 34°40' E 033°04'0 0.0
2017-Jan-17 20:32N 34°40' E 033°04'0 0.0
2017-Jan-17 19:32N 34°40' E 033°04'0 0.0
2017-Jan-17 18:31N 34°40' E 033°04'0 0.0
2017-Jan-17 17:31N 34°40' E 033°04'0 0.0
2017-Jan-17 16:33N 34°40' E 033°04'0 0.0
2017-Jan-17 15:33N 34°40' E 033°04'0 0.0
2017-Jan-17 14:32N 34°40' E 033°04'0 0.0
2017-Jan-17 13:29N 34°40' E 033°04'0 0.0
2017-Jan-17 12:29N 34°40' E 033°04'0 0.0
2017-Jan-17 11:31N 34°40' E 033°04'0 0.0
2017-Jan-17 10:31N 34°40' E 033°04'0 0.0
2017-Jan-17 09:33N 34°40' E 033°04'0 0.0
2017-Jan-17 08:33N 34°40' E 033°04'0 0.0
2017-Jan-17 07:32N 34°40' E 033°04'0 0.0
2017-Jan-17 06:29N 34°40' E 033°04'0 0.0
2017-Jan-17 05:31N 34°40' E 033°04'0 0.0
2017-Jan-17 04:31N 34°40' E 033°04'0 0.0
2017-Jan-17 03:31N 34°40' E 033°04'0 0.0
2017-Jan-17 02:33N 34°40' E 033°04'0 0.0
2017-Jan-17 01:33N 34°40' E 033°04'0 0.0
2017-Jan-17 00:32N 34°40' E 033°04'0 0.0
2017-Jan-16 23:32N 34°40' E 033°04'0 0.0
2017-Jan-16 22:31N 34°40' E 033°04'0 0.0
2017-Jan-16 21:31N 34°40' E 033°04'0 0.0
2017-Jan-16 20:31N 34°40' E 033°04'0 0.0
2017-Jan-16 19:33N 34°40' E 033°04'0 0.0
2017-Jan-16 18:33N 34°40' E 033°04'0 0.0
2017-Jan-16 17:32N 34°40' E 033°04'0 0.1
2017-Jan-16 16:33N 34°40' E 033°04'6 6.1
2017-Jan-16 15:33N 34°37' E 033°11'9 6.6
2017-Jan-16 14:08N 34°29' E 033°18'0 0.8
2017-Jan-16 13:33N 34°29' E 033°17'0 0.4
2017-Jan-16 12:33N 34°29' E 033°17'0 0.5
2017-Jan-16 11:33N 34°29' E 033°17'3 3.4
2017-Jan-16 10:33N 34°27' E 033°21'3 0.2
2017-Jan-15 22:27N 34°26' E 033°24'1 0.7
2017-Jan-15 21:33N 34°27' E 033°24'1 0.6
2017-Jan-15 20:32N 34°27' E 033°23'0 0.3
2017-Jan-15 19:33N 34°27' E 033°23'0 0.2
2017-Jan-15 18:33N 34°27' E 033°22'1 0.7
2017-Jan-15 17:33N 34°28' E 033°22'2 2.1
2017-Jan-15 16:32N 34°26' E 033°20'3 3.1
2017-Jan-15 15:26N 34°23' E 033°20'1 1.7
2017-Jan-15 14:33N 34°22' E 033°21'1 0.9
2017-Jan-15 13:28N 34°23' E 033°20'1 1.0
2017-Jan-15 12:30N 34°24' E 033°20'1 0.9
2017-Jan-15 11:33N 34°25' E 033°19'1 0.7
2017-Jan-15 10:33N 34°25' E 033°19'1 0.7
2017-Jan-15 09:33N 34°26' E 033°19'1 0.7
2017-Jan-15 08:33N 34°27' E 033°20'1 0.7
2017-Jan-15 07:33N 34°27' E 033°20'1 0.7
2017-Jan-15 06:33N 34°28' E 033°20'1 0.7
2017-Jan-15 05:33N 34°29' E 033°20'1 0.5
2017-Jan-15 04:33N 34°29' E 033°20'0 0.3
2017-Jan-15 03:33N 34°29' E 033°21'0 0.2
2017-Jan-15 02:31N 34°29' E 033°21'2 2.5
2017-Jan-15 01:33N 34°27' E 033°19'1 1.2
2017-Jan-15 00:33N 34°28' E 033°18'  

Dump ship's entire track history